sensor_id;sensor_type;location;lat;lon;timestamp;P1;durP1;ratioP1;P2;durP2;ratioP2
65174;SDS011;51761;42.126;24.752;2023-04-24T00:01:23;10.93;;;7.00;;
65174;SDS011;51761;42.126;24.752;2023-04-24T00:03:49;21.60;;;7.18;;
65174;SDS011;51761;42.126;24.752;2023-04-24T00:06:14;27.48;;;7.97;;
65174;SDS011;51761;42.126;24.752;2023-04-24T00:08:41;14.93;;;7.50;;
65174;SDS011;51761;42.126;24.752;2023-04-24T00:11:08;16.83;;;9.38;;
65174;SDS011;51761;42.126;24.752;2023-04-24T00:13:34;19.08;;;8.60;;
65174;SDS011;51761;42.126;24.752;2023-04-24T00:16:00;15.60;;;7.75;;
65174;SDS011;51761;42.126;24.752;2023-04-24T00:18:25;20.00;;;8.82;;
65174;SDS011;51761;42.126;24.752;2023-04-24T00:20:51;21.95;;;8.27;;
65174;SDS011;51761;42.126;24.752;2023-04-24T00:23:16;19.50;;;8.55;;
65174;SDS011;51761;42.126;24.752;2023-04-24T00:25:42;22.55;;;8.90;;
65174;SDS011;51761;42.126;24.752;2023-04-24T00:28:07;21.63;;;8.68;;
65174;SDS011;51761;42.126;24.752;2023-04-24T00:30:33;16.70;;;8.57;;
65174;SDS011;51761;42.126;24.752;2023-04-24T00:32:58;18.60;;;8.95;;
65174;SDS011;51761;42.126;24.752;2023-04-24T00:35:24;15.25;;;8.13;;
65174;SDS011;51761;42.126;24.752;2023-04-24T00:37:49;19.58;;;7.88;;
65174;SDS011;51761;42.126;24.752;2023-04-24T00:40:16;17.55;;;8.00;;
65174;SDS011;51761;42.126;24.752;2023-04-24T00:42:42;17.38;;;8.00;;
65174;SDS011;51761;42.126;24.752;2023-04-24T00:45:08;18.27;;;8.13;;
65174;SDS011;51761;42.126;24.752;2023-04-24T00:47:35;18.58;;;8.95;;
65174;SDS011;51761;42.126;24.752;2023-04-24T00:50:02;19.80;;;8.85;;
65174;SDS011;51761;42.126;24.752;2023-04-24T00:52:31;19.58;;;8.45;;
65174;SDS011;51761;42.126;24.752;2023-04-24T00:54:57;23.17;;;8.35;;
65174;SDS011;51761;42.126;24.752;2023-04-24T00:57:24;16.92;;;8.60;;
65174;SDS011;51761;42.126;24.752;2023-04-24T00:59:50;17.48;;;8.07;;
65174;SDS011;51761;42.126;24.752;2023-04-24T01:02:17;19.20;;;8.95;;
65174;SDS011;51761;42.126;24.752;2023-04-24T01:04:43;15.00;;;8.07;;
65174;SDS011;51761;42.126;24.752;2023-04-24T01:07:08;23.05;;;8.18;;
65174;SDS011;51761;42.126;24.752;2023-04-24T01:09:42;18.70;;;8.45;;
65174;SDS011;51761;42.126;24.752;2023-04-24T01:12:12;16.10;;;8.00;;
65174;SDS011;51761;42.126;24.752;2023-04-24T01:14:38;16.90;;;8.93;;
65174;SDS011;51761;42.126;24.752;2023-04-24T01:17:03;17.40;;;8.13;;
65174;SDS011;51761;42.126;24.752;2023-04-24T01:19:29;18.05;;;9.18;;
65174;SDS011;51761;42.126;24.752;2023-04-24T01:21:54;19.85;;;9.10;;
65174;SDS011;51761;42.126;24.752;2023-04-24T01:24:24;16.98;;;8.35;;
65174;SDS011;51761;42.126;24.752;2023-04-24T01:26:50;14.80;;;8.93;;
65174;SDS011;51761;42.126;24.752;2023-04-24T01:29:15;16.38;;;8.68;;
65174;SDS011;51761;42.126;24.752;2023-04-24T01:31:41;15.90;;;7.38;;
65174;SDS011;51761;42.126;24.752;2023-04-24T01:34:07;18.38;;;9.77;;
65174;SDS011;51761;42.126;24.752;2023-04-24T01:36:33;21.70;;;10.82;;
65174;SDS011;51761;42.126;24.752;2023-04-24T01:39:00;17.35;;;11.20;;
65174;SDS011;51761;42.126;24.752;2023-04-24T01:41:26;22.25;;;11.63;;
65174;SDS011;51761;42.126;24.752;2023-04-24T01:43:51;24.33;;;13.23;;
65174;SDS011;51761;42.126;24.752;2023-04-24T01:46:18;20.15;;;10.98;;
65174;SDS011;51761;42.126;24.752;2023-04-24T01:48:44;23.08;;;12.43;;
65174;SDS011;51761;42.126;24.752;2023-04-24T01:51:10;19.25;;;11.75;;
65174;SDS011;51761;42.126;24.752;2023-04-24T01:53:36;21.20;;;12.35;;
65174;SDS011;51761;42.126;24.752;2023-04-24T01:56:01;18.17;;;11.77;;
65174;SDS011;51761;42.126;24.752;2023-04-24T01:58:28;22.38;;;11.98;;
65174;SDS011;51761;42.126;24.752;2023-04-24T02:00:55;24.23;;;12.23;;
65174;SDS011;51761;42.126;24.752;2023-04-24T02:03:22;25.63;;;12.07;;
65174;SDS011;51761;42.126;24.752;2023-04-24T02:05:47;26.33;;;12.93;;
65174;SDS011;51761;42.126;24.752;2023-04-24T02:08:12;23.42;;;12.60;;
65174;SDS011;51761;42.126;24.752;2023-04-24T02:10:38;21.70;;;12.20;;
65174;SDS011;51761;42.126;24.752;2023-04-24T02:13:03;26.63;;;12.45;;
65174;SDS011;51761;42.126;24.752;2023-04-24T02:15:29;22.27;;;12.02;;
65174;SDS011;51761;42.126;24.752;2023-04-24T02:17:55;28.55;;;12.32;;
65174;SDS011;51761;42.126;24.752;2023-04-24T02:20:20;19.40;;;11.90;;
65174;SDS011;51761;42.126;24.752;2023-04-24T02:22:46;22.95;;;12.85;;
65174;SDS011;51761;42.126;24.752;2023-04-24T02:25:12;19.02;;;12.70;;
65174;SDS011;51761;42.126;24.752;2023-04-24T02:27:37;22.42;;;12.75;;
65174;SDS011;51761;42.126;24.752;2023-04-24T02:30:03;22.20;;;13.10;;
65174;SDS011;51761;42.126;24.752;2023-04-24T02:32:28;21.70;;;12.27;;
65174;SDS011;51761;42.126;24.752;2023-04-24T02:34:55;21.10;;;12.10;;
65174;SDS011;51761;42.126;24.752;2023-04-24T02:37:21;18.50;;;11.50;;
65174;SDS011;51761;42.126;24.752;2023-04-24T02:39:46;29.90;;;12.30;;
65174;SDS011;51761;42.126;24.752;2023-04-24T02:42:12;21.65;;;11.80;;
65174;SDS011;51761;42.126;24.752;2023-04-24T02:44:37;23.83;;;13.80;;
65174;SDS011;51761;42.126;24.752;2023-04-24T02:47:03;23.23;;;12.77;;
65174;SDS011;51761;42.126;24.752;2023-04-24T02:49:29;24.90;;;12.73;;
65174;SDS011;51761;42.126;24.752;2023-04-24T02:51:54;24.08;;;13.10;;
65174;SDS011;51761;42.126;24.752;2023-04-24T02:54:20;23.92;;;12.88;;
65174;SDS011;51761;42.126;24.752;2023-04-24T02:56:45;24.70;;;13.75;;
65174;SDS011;51761;42.126;24.752;2023-04-24T02:59:11;28.50;;;13.70;;
65174;SDS011;51761;42.126;24.752;2023-04-24T03:01:36;28.67;;;13.80;;
65174;SDS011;51761;42.126;24.752;2023-04-24T03:04:02;24.45;;;12.85;;
65174;SDS011;51761;42.126;24.752;2023-04-24T03:06:27;22.00;;;13.35;;
65174;SDS011;51761;42.126;24.752;2023-04-24T03:08:53;27.20;;;13.13;;
65174;SDS011;51761;42.126;24.752;2023-04-24T03:11:19;23.73;;;13.48;;
65174;SDS011;51761;42.126;24.752;2023-04-24T03:13:45;22.90;;;15.13;;
65174;SDS011;51761;42.126;24.752;2023-04-24T03:16:10;26.38;;;14.13;;
65174;SDS011;51761;42.126;24.752;2023-04-24T03:18:36;27.35;;;15.07;;
65174;SDS011;51761;42.126;24.752;2023-04-24T03:21:01;28.67;;;15.30;;
65174;SDS011;51761;42.126;24.752;2023-04-24T03:23:28;28.50;;;13.98;;
65174;SDS011;51761;42.126;24.752;2023-04-24T03:25:53;23.48;;;15.15;;
65174;SDS011;51761;42.126;24.752;2023-04-24T03:28:20;27.48;;;16.77;;
65174;SDS011;51761;42.126;24.752;2023-04-24T03:30:45;30.23;;;16.88;;
65174;SDS011;51761;42.126;24.752;2023-04-24T03:33:11;30.25;;;15.82;;
65174;SDS011;51761;42.126;24.752;2023-04-24T03:35:36;34.53;;;16.33;;
65174;SDS011;51761;42.126;24.752;2023-04-24T03:38:02;34.17;;;15.68;;
65174;SDS011;51761;42.126;24.752;2023-04-24T03:40:29;28.27;;;16.02;;
65174;SDS011;51761;42.126;24.752;2023-04-24T03:42:55;39.78;;;16.35;;
65174;SDS011;51761;42.126;24.752;2023-04-24T03:45:20;26.35;;;15.77;;
65174;SDS011;51761;42.126;24.752;2023-04-24T03:47:46;28.95;;;15.10;;
65174;SDS011;51761;42.126;24.752;2023-04-24T03:50:11;28.42;;;16.05;;
65174;SDS011;51761;42.126;24.752;2023-04-24T03:52:37;28.45;;;15.48;;
65174;SDS011;51761;42.126;24.752;2023-04-24T03:55:02;27.58;;;13.95;;
65174;SDS011;51761;42.126;24.752;2023-04-24T03:57:28;29.20;;;15.93;;
65174;SDS011;51761;42.126;24.752;2023-04-24T03:59:53;26.65;;;14.10;;
65174;SDS011;51761;42.126;24.752;2023-04-24T04:02:19;32.22;;;14.75;;
65174;SDS011;51761;42.126;24.752;2023-04-24T04:04:44;28.23;;;15.50;;
65174;SDS011;51761;42.126;24.752;2023-04-24T04:07:10;23.15;;;13.90;;
65174;SDS011;51761;42.126;24.752;2023-04-24T04:09:36;28.15;;;14.13;;
65174;SDS011;51761;42.126;24.752;2023-04-24T04:12:01;26.50;;;15.00;;
65174;SDS011;51761;42.126;24.752;2023-04-24T04:14:27;28.88;;;14.65;;
65174;SDS011;51761;42.126;24.752;2023-04-24T04:16:53;25.65;;;14.55;;
65174;SDS011;51761;42.126;24.752;2023-04-24T04:19:19;30.25;;;15.55;;
65174;SDS011;51761;42.126;24.752;2023-04-24T04:21:44;27.02;;;14.68;;
65174;SDS011;51761;42.126;24.752;2023-04-24T04:24:11;35.30;;;14.40;;
65174;SDS011;51761;42.126;24.752;2023-04-24T04:26:36;30.92;;;14.70;;
65174;SDS011;51761;42.126;24.752;2023-04-24T04:29:03;28.40;;;13.88;;
65174;SDS011;51761;42.126;24.752;2023-04-24T04:31:28;35.47;;;15.15;;
65174;SDS011;51761;42.126;24.752;2023-04-24T04:33:55;39.83;;;13.35;;
65174;SDS011;51761;42.126;24.752;2023-04-24T04:36:20;37.33;;;14.23;;
65174;SDS011;51761;42.126;24.752;2023-04-24T04:38:46;36.72;;;15.00;;
65174;SDS011;51761;42.126;24.752;2023-04-24T04:41:11;35.72;;;15.70;;
65174;SDS011;51761;42.126;24.752;2023-04-24T04:43:37;28.80;;;12.98;;
65174;SDS011;51761;42.126;24.752;2023-04-24T04:46:04;37.15;;;13.52;;
65174;SDS011;51761;42.126;24.752;2023-04-24T04:48:30;58.92;;;26.92;;
65174;SDS011;51761;42.126;24.752;2023-04-24T04:50:56;114.65;;;49.08;;
65174;SDS011;51761;42.126;24.752;2023-04-24T04:53:22;68.57;;;31.35;;
65174;SDS011;51761;42.126;24.752;2023-04-24T04:55:48;42.00;;;19.48;;
65174;SDS011;51761;42.126;24.752;2023-04-24T04:58:13;30.13;;;13.85;;
65174;SDS011;51761;42.126;24.752;2023-04-24T05:00:39;26.02;;;12.13;;
65174;SDS011;51761;42.126;24.752;2023-04-24T05:03:05;28.00;;;12.13;;
65174;SDS011;51761;42.126;24.752;2023-04-24T05:05:30;54.60;;;24.58;;
65174;SDS011;51761;42.126;24.752;2023-04-24T05:07:55;31.60;;;16.63;;
65174;SDS011;51761;42.126;24.752;2023-04-24T05:10:21;20.80;;;10.43;;
65174;SDS011;51761;42.126;24.752;2023-04-24T05:12:46;21.40;;;11.20;;
65174;SDS011;51761;42.126;24.752;2023-04-24T05:15:12;25.52;;;11.68;;
65174;SDS011;51761;42.126;24.752;2023-04-24T05:17:37;44.25;;;17.98;;
65174;SDS011;51761;42.126;24.752;2023-04-24T05:20:05;89.43;;;41.88;;
65174;SDS011;51761;42.126;24.752;2023-04-24T05:22:33;22.38;;;12.00;;
65174;SDS011;51761;42.126;24.752;2023-04-24T05:24:59;25.33;;;14.15;;
65174;SDS011;51761;42.126;24.752;2023-04-24T05:27:24;39.20;;;13.88;;
65174;SDS011;51761;42.126;24.752;2023-04-24T05:29:50;25.45;;;12.38;;
65174;SDS011;51761;42.126;24.752;2023-04-24T05:32:16;21.58;;;10.77;;
65174;SDS011;51761;42.126;24.752;2023-04-24T05:34:41;31.67;;;11.85;;
65174;SDS011;51761;42.126;24.752;2023-04-24T05:37:07;31.63;;;12.65;;
65174;SDS011;51761;42.126;24.752;2023-04-24T05:39:34;21.27;;;10.77;;
65174;SDS011;51761;42.126;24.752;2023-04-24T05:42:00;20.45;;;10.93;;
65174;SDS011;51761;42.126;24.752;2023-04-24T05:44:26;22.20;;;11.35;;
65174;SDS011;51761;42.126;24.752;2023-04-24T05:46:52;26.02;;;10.13;;
65174;SDS011;51761;42.126;24.752;2023-04-24T05:49:18;24.80;;;10.23;;
65174;SDS011;51761;42.126;24.752;2023-04-24T05:51:43;24.77;;;10.65;;
65174;SDS011;51761;42.126;24.752;2023-04-24T05:54:09;25.85;;;10.30;;
65174;SDS011;51761;42.126;24.752;2023-04-24T05:56:37;28.77;;;10.07;;
65174;SDS011;51761;42.126;24.752;2023-04-24T05:59:02;21.02;;;9.98;;
65174;SDS011;51761;42.126;24.752;2023-04-24T06:01:28;20.92;;;10.15;;
65174;SDS011;51761;42.126;24.752;2023-04-24T06:03:54;21.10;;;10.18;;
65174;SDS011;51761;42.126;24.752;2023-04-24T06:06:20;14.60;;;8.30;;
65174;SDS011;51761;42.126;24.752;2023-04-24T06:08:45;17.40;;;8.27;;
65174;SDS011;51761;42.126;24.752;2023-04-24T06:11:11;15.27;;;8.45;;
65174;SDS011;51761;42.126;24.752;2023-04-24T06:13:36;22.10;;;9.05;;
65174;SDS011;51761;42.126;24.752;2023-04-24T06:16:02;18.05;;;8.00;;
65174;SDS011;51761;42.126;24.752;2023-04-24T06:18:27;18.92;;;8.05;;
65174;SDS011;51761;42.126;24.752;2023-04-24T06:20:53;26.33;;;7.80;;
65174;SDS011;51761;42.126;24.752;2023-04-24T06:23:20;14.77;;;8.20;;
65174;SDS011;51761;42.126;24.752;2023-04-24T06:25:45;18.50;;;7.82;;
65174;SDS011;51761;42.126;24.752;2023-04-24T06:28:11;19.02;;;8.65;;
65174;SDS011;51761;42.126;24.752;2023-04-24T06:30:37;13.57;;;8.40;;
65174;SDS011;51761;42.126;24.752;2023-04-24T06:33:03;22.23;;;8.38;;
65174;SDS011;51761;42.126;24.752;2023-04-24T06:35:28;21.00;;;8.73;;
65174;SDS011;51761;42.126;24.752;2023-04-24T06:37:54;20.33;;;8.82;;
65174;SDS011;51761;42.126;24.752;2023-04-24T06:40:21;17.67;;;7.88;;
65174;SDS011;51761;42.126;24.752;2023-04-24T06:42:47;23.63;;;10.35;;
65174;SDS011;51761;42.126;24.752;2023-04-24T06:45:12;17.15;;;8.73;;
65174;SDS011;51761;42.126;24.752;2023-04-24T06:47:37;20.15;;;9.13;;
65174;SDS011;51761;42.126;24.752;2023-04-24T06:50:03;22.65;;;8.38;;
65174;SDS011;51761;42.126;24.752;2023-04-24T06:52:29;14.63;;;8.35;;
65174;SDS011;51761;42.126;24.752;2023-04-24T06:55:01;14.48;;;7.72;;
65174;SDS011;51761;42.126;24.752;2023-04-24T06:57:27;15.73;;;8.48;;
65174;SDS011;51761;42.126;24.752;2023-04-24T06:59:53;16.23;;;8.00;;
65174;SDS011;51761;42.126;24.752;2023-04-24T07:02:19;15.65;;;8.32;;
65174;SDS011;51761;42.126;24.752;2023-04-24T07:04:45;22.08;;;10.10;;
65174;SDS011;51761;42.126;24.752;2023-04-24T07:07:12;17.33;;;8.43;;
65174;SDS011;51761;42.126;24.752;2023-04-24T07:09:39;21.50;;;8.57;;
65174;SDS011;51761;42.126;24.752;2023-04-24T07:12:07;13.20;;;7.90;;
65174;SDS011;51761;42.126;24.752;2023-04-24T07:14:35;16.08;;;7.85;;
65174;SDS011;51761;42.126;24.752;2023-04-24T07:17:02;14.38;;;7.57;;
65174;SDS011;51761;42.126;24.752;2023-04-24T07:19:28;12.43;;;7.10;;
65174;SDS011;51761;42.126;24.752;2023-04-24T07:21:54;13.93;;;6.95;;
65174;SDS011;51761;42.126;24.752;2023-04-24T07:24:20;41.53;;;21.75;;
65174;SDS011;51761;42.126;24.752;2023-04-24T07:26:45;13.85;;;7.72;;
65174;SDS011;51761;42.126;24.752;2023-04-24T07:29:11;11.10;;;7.28;;
65174;SDS011;51761;42.126;24.752;2023-04-24T07:31:38;13.43;;;7.10;;
65174;SDS011;51761;42.126;24.752;2023-04-24T07:34:06;11.35;;;7.15;;
65174;SDS011;51761;42.126;24.752;2023-04-24T07:36:31;14.77;;;7.05;;
65174;SDS011;51761;42.126;24.752;2023-04-24T07:38:57;12.15;;;7.93;;
65174;SDS011;51761;42.126;24.752;2023-04-24T07:41:22;18.40;;;8.73;;
65174;SDS011;51761;42.126;24.752;2023-04-24T07:43:49;16.85;;;8.90;;
65174;SDS011;51761;42.126;24.752;2023-04-24T07:46:14;13.63;;;9.18;;
65174;SDS011;51761;42.126;24.752;2023-04-24T07:48:40;21.58;;;11.38;;
65174;SDS011;51761;42.126;24.752;2023-04-24T07:51:05;14.88;;;9.90;;
65174;SDS011;51761;42.126;24.752;2023-04-24T07:53:31;16.70;;;8.23;;
65174;SDS011;51761;42.126;24.752;2023-04-24T07:55:56;17.25;;;8.38;;
65174;SDS011;51761;42.126;24.752;2023-04-24T07:58:22;21.85;;;8.57;;
65174;SDS011;51761;42.126;24.752;2023-04-24T08:00:48;20.60;;;7.43;;
65174;SDS011;51761;42.126;24.752;2023-04-24T08:03:13;19.45;;;8.57;;
65174;SDS011;51761;42.126;24.752;2023-04-24T08:05:39;15.52;;;8.70;;
65174;SDS011;51761;42.126;24.752;2023-04-24T08:08:06;18.45;;;8.95;;
65174;SDS011;51761;42.126;24.752;2023-04-24T08:10:32;18.50;;;8.40;;
65174;SDS011;51761;42.126;24.752;2023-04-24T08:12:57;15.50;;;8.30;;
65174;SDS011;51761;42.126;24.752;2023-04-24T08:15:23;22.10;;;9.38;;
65174;SDS011;51761;42.126;24.752;2023-04-24T08:17:48;12.70;;;7.78;;
65174;SDS011;51761;42.126;24.752;2023-04-24T08:20:14;17.70;;;7.80;;
65174;SDS011;51761;42.126;24.752;2023-04-24T08:22:40;18.92;;;8.35;;
65174;SDS011;51761;42.126;24.752;2023-04-24T08:25:07;15.15;;;8.35;;
65174;SDS011;51761;42.126;24.752;2023-04-24T08:27:34;12.65;;;8.27;;
65174;SDS011;51761;42.126;24.752;2023-04-24T08:29:59;14.82;;;8.25;;
65174;SDS011;51761;42.126;24.752;2023-04-24T08:32:25;13.35;;;7.93;;
65174;SDS011;51761;42.126;24.752;2023-04-24T08:34:55;18.20;;;8.80;;
65174;SDS011;51761;42.126;24.752;2023-04-24T08:37:21;17.33;;;8.45;;
65174;SDS011;51761;42.126;24.752;2023-04-24T08:39:48;15.90;;;8.05;;
65174;SDS011;51761;42.126;24.752;2023-04-24T08:42:17;16.13;;;8.27;;
65174;SDS011;51761;42.126;24.752;2023-04-24T08:44:44;19.20;;;8.77;;
65174;SDS011;51761;42.126;24.752;2023-04-24T08:47:10;24.45;;;9.07;;
65174;SDS011;51761;42.126;24.752;2023-04-24T08:49:37;18.30;;;7.85;;
65174;SDS011;51761;42.126;24.752;2023-04-24T08:52:04;17.25;;;7.13;;
65174;SDS011;51761;42.126;24.752;2023-04-24T08:54:31;21.20;;;7.50;;
65174;SDS011;51761;42.126;24.752;2023-04-24T08:57:00;10.68;;;6.95;;
65174;SDS011;51761;42.126;24.752;2023-04-24T08:59:27;12.00;;;6.88;;
65174;SDS011;51761;42.126;24.752;2023-04-24T09:01:53;12.40;;;7.25;;
65174;SDS011;51761;42.126;24.752;2023-04-24T09:04:20;13.85;;;6.70;;
65174;SDS011;51761;42.126;24.752;2023-04-24T09:06:47;12.98;;;7.00;;
65174;SDS011;51761;42.126;24.752;2023-04-24T09:09:14;12.88;;;7.40;;
65174;SDS011;51761;42.126;24.752;2023-04-24T09:11:42;12.45;;;8.15;;
65174;SDS011;51761;42.126;24.752;2023-04-24T09:14:08;14.25;;;6.85;;
65174;SDS011;51761;42.126;24.752;2023-04-24T09:16:35;13.20;;;7.03;;
65174;SDS011;51761;42.126;24.752;2023-04-24T09:19:00;12.63;;;6.85;;
65174;SDS011;51761;42.126;24.752;2023-04-24T09:21:30;17.13;;;7.35;;
65174;SDS011;51761;42.126;24.752;2023-04-24T09:24:01;15.15;;;6.93;;
65174;SDS011;51761;42.126;24.752;2023-04-24T09:26:29;15.20;;;7.30;;
65174;SDS011;51761;42.126;24.752;2023-04-24T09:29:00;12.07;;;6.72;;
65174;SDS011;51761;42.126;24.752;2023-04-24T09:31:27;9.13;;;6.38;;
65174;SDS011;51761;42.126;24.752;2023-04-24T09:33:54;13.10;;;6.70;;
65174;SDS011;51761;42.126;24.752;2023-04-24T09:36:26;10.75;;;6.20;;
65174;SDS011;51761;42.126;24.752;2023-04-24T09:38:57;10.75;;;5.75;;
65174;SDS011;51761;42.126;24.752;2023-04-24T09:41:23;10.32;;;5.90;;
65174;SDS011;51761;42.126;24.752;2023-04-24T09:43:49;10.45;;;6.60;;
65174;SDS011;51761;42.126;24.752;2023-04-24T09:46:14;14.20;;;6.70;;
65174;SDS011;51761;42.126;24.752;2023-04-24T09:48:43;16.92;;;5.78;;
65174;SDS011;51761;42.126;24.752;2023-04-24T09:51:09;12.93;;;6.60;;
65174;SDS011;51761;42.126;24.752;2023-04-24T09:53:38;14.02;;;6.35;;
65174;SDS011;51761;42.126;24.752;2023-04-24T09:56:09;12.30;;;6.00;;
65174;SDS011;51761;42.126;24.752;2023-04-24T09:58:38;12.15;;;6.10;;
65174;SDS011;51761;42.126;24.752;2023-04-24T10:01:04;11.77;;;6.30;;
65174;SDS011;51761;42.126;24.752;2023-04-24T10:03:29;18.23;;;6.20;;
65174;SDS011;51761;42.126;24.752;2023-04-24T10:05:59;12.60;;;6.82;;
65174;SDS011;51761;42.126;24.752;2023-04-24T10:08:34;15.93;;;6.50;;
65174;SDS011;51761;42.126;24.752;2023-04-24T10:11:00;9.52;;;6.13;;
65174;SDS011;51761;42.126;24.752;2023-04-24T10:13:27;13.00;;;6.35;;
65174;SDS011;51761;42.126;24.752;2023-04-24T10:15:53;8.70;;;6.05;;
65174;SDS011;51761;42.126;24.752;2023-04-24T10:18:21;12.75;;;7.05;;
65174;SDS011;51761;42.126;24.752;2023-04-24T10:20:47;14.02;;;7.60;;
65174;SDS011;51761;42.126;24.752;2023-04-24T10:23:13;14.57;;;7.50;;
65174;SDS011;51761;42.126;24.752;2023-04-24T10:25:40;14.57;;;6.70;;
65174;SDS011;51761;42.126;24.752;2023-04-24T10:28:06;17.15;;;7.18;;
65174;SDS011;51761;42.126;24.752;2023-04-24T10:30:32;10.75;;;5.78;;
65174;SDS011;51761;42.126;24.752;2023-04-24T10:33:02;19.02;;;6.72;;
65174;SDS011;51761;42.126;24.752;2023-04-24T10:35:41;19.85;;;6.65;;
65174;SDS011;51761;42.126;24.752;2023-04-24T10:38:14;11.50;;;5.65;;
65174;SDS011;51761;42.126;24.752;2023-04-24T10:40:43;13.07;;;6.35;;
65174;SDS011;51761;42.126;24.752;2023-04-24T10:43:09;10.68;;;5.95;;
65174;SDS011;51761;42.126;24.752;2023-04-24T10:45:36;12.98;;;6.97;;
65174;SDS011;51761;42.126;24.752;2023-04-24T10:48:03;13.98;;;5.95;;
65174;SDS011;51761;42.126;24.752;2023-04-24T10:50:44;12.00;;;5.18;;
65174;SDS011;51761;42.126;24.752;2023-04-24T10:53:21;11.90;;;5.63;;
65174;SDS011;51761;42.126;24.752;2023-04-24T10:58:23;8.82;;;5.60;;
65174;SDS011;51761;42.126;24.752;2023-04-24T11:00:59;9.95;;;5.95;;
65174;SDS011;51761;42.126;24.752;2023-04-24T11:03:28;11.15;;;5.28;;
65174;SDS011;51761;42.126;24.752;2023-04-24T11:05:59;8.90;;;6.07;;
65174;SDS011;51761;42.126;24.752;2023-04-24T11:11:08;9.48;;;5.60;;
65174;SDS011;51761;42.126;24.752;2023-04-24T11:16:26;13.52;;;6.50;;
65174;SDS011;51761;42.126;24.752;2023-04-24T11:19:06;11.35;;;5.80;;
65174;SDS011;51761;42.126;24.752;2023-04-24T11:21:47;13.48;;;6.15;;
65174;SDS011;51761;42.126;24.752;2023-04-24T11:32:26;11.10;;;5.90;;
65174;SDS011;51761;42.126;24.752;2023-04-24T11:34:54;6.05;;;5.10;;
65174;SDS011;51761;42.126;24.752;2023-04-24T11:37:24;10.57;;;5.45;;
65174;SDS011;51761;42.126;24.752;2023-04-24T11:39:55;11.98;;;5.60;;
65174;SDS011;51761;42.126;24.752;2023-04-24T11:42:23;10.13;;;5.30;;
65174;SDS011;51761;42.126;24.752;2023-04-24T11:44:51;9.38;;;5.57;;
65174;SDS011;51761;42.126;24.752;2023-04-24T11:47:17;10.82;;;5.53;;
65174;SDS011;51761;42.126;24.752;2023-04-24T11:49:43;10.35;;;4.93;;
65174;SDS011;51761;42.126;24.752;2023-04-24T11:52:08;10.27;;;5.38;;
65174;SDS011;51761;42.126;24.752;2023-04-24T11:54:35;12.38;;;4.90;;
65174;SDS011;51761;42.126;24.752;2023-04-24T11:57:03;9.88;;;5.20;;
65174;SDS011;51761;42.126;24.752;2023-04-24T11:59:35;8.20;;;4.57;;
65174;SDS011;51761;42.126;24.752;2023-04-24T12:02:01;14.80;;;4.88;;
65174;SDS011;51761;42.126;24.752;2023-04-24T12:04:27;11.82;;;5.50;;
65174;SDS011;51761;42.126;24.752;2023-04-24T12:07:04;8.52;;;4.97;;
65174;SDS011;51761;42.126;24.752;2023-04-24T12:09:43;9.93;;;4.82;;
65174;SDS011;51761;42.126;24.752;2023-04-24T12:12:13;7.85;;;5.07;;
65174;SDS011;51761;42.126;24.752;2023-04-24T12:17:09;6.75;;;5.03;;
65174;SDS011;51761;42.126;24.752;2023-04-24T12:19:35;9.60;;;5.05;;
65174;SDS011;51761;42.126;24.752;2023-04-24T12:22:02;10.52;;;4.50;;
65174;SDS011;51761;42.126;24.752;2023-04-24T12:24:30;8.35;;;4.75;;
65174;SDS011;51761;42.126;24.752;2023-04-24T12:26:56;16.70;;;5.38;;
65174;SDS011;51761;42.126;24.752;2023-04-24T12:29:23;11.63;;;4.82;;
65174;SDS011;51761;42.126;24.752;2023-04-24T12:31:53;6.72;;;4.30;;
65174;SDS011;51761;42.126;24.752;2023-04-24T12:36:50;12.68;;;4.80;;
65174;SDS011;51761;42.126;24.752;2023-04-24T12:39:16;7.47;;;4.85;;
65174;SDS011;51761;42.126;24.752;2023-04-24T12:41:58;4.65;;;3.90;;
65174;SDS011;51761;42.126;24.752;2023-04-24T12:44:31;11.73;;;5.10;;
65174;SDS011;51761;42.126;24.752;2023-04-24T12:46:59;7.07;;;4.43;;
65174;SDS011;51761;42.126;24.752;2023-04-24T12:49:25;6.18;;;4.25;;
65174;SDS011;51761;42.126;24.752;2023-04-24T12:51:51;11.40;;;5.03;;
65174;SDS011;51761;42.126;24.752;2023-04-24T12:54:16;9.48;;;4.50;;
65174;SDS011;51761;42.126;24.752;2023-04-24T12:56:42;8.40;;;4.40;;
65174;SDS011;51761;42.126;24.752;2023-04-24T12:59:08;6.47;;;4.68;;
65174;SDS011;51761;42.126;24.752;2023-04-24T13:01:33;8.63;;;4.40;;
65174;SDS011;51761;42.126;24.752;2023-04-24T13:03:59;14.15;;;4.10;;
65174;SDS011;51761;42.126;24.752;2023-04-24T13:06:24;8.93;;;4.50;;
65174;SDS011;51761;42.126;24.752;2023-04-24T13:08:51;7.70;;;4.03;;
65174;SDS011;51761;42.126;24.752;2023-04-24T13:11:17;7.45;;;4.32;;
65174;SDS011;51761;42.126;24.752;2023-04-24T13:13:43;9.25;;;3.95;;
65174;SDS011;51761;42.126;24.752;2023-04-24T13:16:08;9.52;;;3.75;;
65174;SDS011;51761;42.126;24.752;2023-04-24T13:18:34;4.85;;;3.80;;
65174;SDS011;51761;42.126;24.752;2023-04-24T13:21:00;8.95;;;4.57;;
65174;SDS011;51761;42.126;24.752;2023-04-24T13:23:25;8.10;;;4.13;;
65174;SDS011;51761;42.126;24.752;2023-04-24T13:25:51;5.40;;;4.40;;
65174;SDS011;51761;42.126;24.752;2023-04-24T13:28:16;12.48;;;4.82;;
65174;SDS011;51761;42.126;24.752;2023-04-24T13:30:42;10.02;;;5.07;;
65174;SDS011;51761;42.126;24.752;2023-04-24T13:33:08;8.65;;;4.32;;
65174;SDS011;51761;42.126;24.752;2023-04-24T13:35:33;7.63;;;4.95;;
65174;SDS011;51761;42.126;24.752;2023-04-24T13:37:59;10.13;;;4.65;;
65174;SDS011;51761;42.126;24.752;2023-04-24T13:40:26;10.07;;;4.40;;
65174;SDS011;51761;42.126;24.752;2023-04-24T13:42:52;6.63;;;4.53;;
65174;SDS011;51761;42.126;24.752;2023-04-24T13:45:18;8.45;;;4.00;;
65174;SDS011;51761;42.126;24.752;2023-04-24T13:47:43;11.27;;;4.50;;
65174;SDS011;51761;42.126;24.752;2023-04-24T13:50:09;10.23;;;4.13;;
65174;SDS011;51761;42.126;24.752;2023-04-24T13:52:35;11.32;;;4.85;;
65174;SDS011;51761;42.126;24.752;2023-04-24T13:55:00;9.80;;;4.68;;
65174;SDS011;51761;42.126;24.752;2023-04-24T13:57:26;10.45;;;4.70;;
65174;SDS011;51761;42.126;24.752;2023-04-24T13:59:53;9.68;;;4.38;;
65174;SDS011;51761;42.126;24.752;2023-04-24T14:02:20;8.45;;;4.35;;
65174;SDS011;51761;42.126;24.752;2023-04-24T14:04:46;6.90;;;4.00;;
65174;SDS011;51761;42.126;24.752;2023-04-24T14:07:13;25.45;;;11.80;;
65174;SDS011;51761;42.126;24.752;2023-04-24T14:09:38;12.07;;;4.75;;
65174;SDS011;51761;42.126;24.752;2023-04-24T14:12:04;10.85;;;4.13;;
65174;SDS011;51761;42.126;24.752;2023-04-24T14:14:30;10.38;;;4.10;;
65174;SDS011;51761;42.126;24.752;2023-04-24T14:16:56;11.20;;;4.63;;
65174;SDS011;51761;42.126;24.752;2023-04-24T14:19:22;8.82;;;4.47;;
65174;SDS011;51761;42.126;24.752;2023-04-24T14:21:47;7.47;;;4.63;;
65174;SDS011;51761;42.126;24.752;2023-04-24T14:24:13;15.52;;;4.95;;
65174;SDS011;51761;42.126;24.752;2023-04-24T14:26:38;7.00;;;4.38;;
65174;SDS011;51761;42.126;24.752;2023-04-24T14:29:04;8.05;;;3.97;;
65174;SDS011;51761;42.126;24.752;2023-04-24T14:31:30;7.55;;;4.22;;
65174;SDS011;51761;42.126;24.752;2023-04-24T14:33:55;8.02;;;4.55;;
65174;SDS011;51761;42.126;24.752;2023-04-24T14:36:20;7.97;;;3.90;;